Drewsey, Oregon
Current Conditions -  °F | °C
As of 9:53 PM on Saturday 22 Nov 2014 (Local Time) from KBNO Reporting Station
Clear Clear  
Wind Chill: 25°   Ceiling: Unl
Heat Index: 31°   Visibility: 10mi
Dew Point: 25°   Wind: 6mph
Humidity: 79%   Direction: 250°WSW
Pressure: 30.14"   Gusts: NA
Location:  43.81°N, 118.38°W
Report Text: KBNO 230553Z AUTO 25005KT 10SM CLR M01/M04 A3014 RMK AO2 SLP224 T10061039 10022 21011 51028
Loading
Personal Weather Stations






























Interactive Weather Map New forecast layout! Learn more

10-Day Weather Forecast

Advertisements
Track Severe Weather on mobile